createdAt,value
2019-01-27T00:01:02.439Z,927.67
2019-01-27T00:02:11.487Z,927.66
2019-01-27T00:03:19.648Z,927.61
2019-01-27T00:04:27.623Z,927.57
2019-01-27T00:05:35.666Z,927.54
2019-01-27T00:06:43.715Z,927.55
2019-01-27T00:07:51.872Z,927.49
2019-01-27T00:08:59.930Z,927.51
2019-01-27T00:10:07.900Z,927.49
2019-01-27T00:11:15.950Z,927.51
2019-01-27T00:12:23.985Z,927.45
2019-01-27T00:13:32.148Z,927.46
2019-01-27T00:14:40.102Z,927.46
2019-01-27T00:15:48.165Z,927.46
2019-01-27T00:16:56.210Z,927.46
2019-01-27T00:18:04.247Z,927.42
2019-01-27T00:19:12.395Z,927.43
2019-01-27T00:20:20.402Z,927.40
2019-01-27T00:21:28.431Z,927.36
2019-01-27T00:22:36.492Z,927.29
2019-01-27T00:23:44.571Z,927.26
2019-01-27T00:24:52.618Z,927.25
2019-01-27T00:26:00.702Z,927.24
2019-01-27T00:27:08.716Z,927.19
2019-01-27T00:28:16.770Z,927.18
2019-01-27T00:29:24.882Z,927.12
2019-01-27T00:30:32.887Z,927.12
2019-01-27T00:31:40.948Z,927.10
2019-01-27T00:32:49.011Z,927.07
2019-01-27T00:33:57.102Z,927.03
2019-01-27T00:35:05.114Z,927.03
2019-01-27T00:36:13.174Z,927.06
2019-01-27T00:37:21.219Z,926.98
2019-01-27T00:38:29.379Z,926.99
2019-01-27T00:39:37.389Z,926.91
2019-01-27T00:40:45.398Z,926.93
2019-01-27T00:41:53.458Z,926.86
2019-01-27T00:43:01.509Z,926.84
2019-01-27T00:44:11.061Z,926.83
2019-01-27T00:45:17.607Z,926.81
2019-01-27T00:46:25.676Z,926.86
2019-01-27T00:47:33.707Z,926.82
2019-01-27T00:48:41.794Z,926.84
2019-01-27T00:49:49.934Z,926.82
2019-01-27T00:50:57.908Z,926.80
2019-01-27T00:52:05.953Z,926.80
2019-01-27T00:53:14.014Z,926.74
2019-01-27T00:54:22.163Z,926.74
2019-01-27T00:55:30.117Z,926.65
2019-01-27T00:56:38.186Z,926.67
2019-01-27T00:57:46.219Z,926.62
2019-01-27T00:58:54.275Z,926.61
2019-01-27T01:00:02.382Z,926.56
2019-01-27T01:01:10.407Z,926.57
2019-01-27T01:02:18.458Z,926.56
2019-01-27T01:03:26.511Z,926.55
2019-01-27T01:04:34.601Z,926.54
2019-01-27T01:05:42.616Z,926.56
2019-01-27T01:06:50.684Z,926.53
2019-01-27T01:07:58.720Z,926.52
2019-01-27T01:09:06.796Z,926.54
2019-01-27T01:10:14.944Z,926.50
2019-01-27T01:11:22.900Z,926.53
2019-01-27T01:12:30.957Z,926.51
2019-01-27T01:13:39.007Z,926.49
2019-01-27T01:14:47.163Z,926.50
2019-01-27T01:15:55.126Z,926.51
2019-01-27T01:17:03.199Z,926.46
2019-01-27T01:18:11.231Z,926.44
2019-01-27T01:19:19.297Z,926.42
2019-01-27T01:20:27.443Z,926.37
2019-01-27T01:21:35.406Z,926.34
2019-01-27T01:22:43.452Z,926.34
2019-01-27T01:23:51.566Z,926.39
2019-01-27T01:24:59.596Z,926.36
2019-01-27T01:26:07.725Z,926.34
2019-01-27T01:27:15.700Z,926.33
2019-01-27T01:28:23.741Z,926.31
2019-01-27T01:29:31.814Z,926.27
2019-01-27T01:30:39.869Z,926.29
2019-01-27T01:31:48.018Z,926.27
2019-01-27T01:32:55.961Z,926.24
2019-01-27T01:34:04.017Z,926.29
2019-01-27T01:35:12.098Z,926.24
2019-01-27T01:36:20.128Z,926.23
2019-01-27T01:37:28.306Z,926.22
2019-01-27T01:38:36.255Z,926.25
2019-01-27T01:39:44.311Z,926.21
2019-01-27T01:40:52.363Z,926.17
2019-01-27T01:42:00.557Z,926.11
2019-01-27T01:43:08.593Z,926.02
2019-01-27T01:44:16.529Z,925.99
2019-01-27T01:45:24.573Z,925.98
2019-01-27T01:46:32.659Z,926.02
2019-01-27T01:47:40.839Z,926.01
2019-01-27T01:48:48.770Z,926.00
2019-01-27T01:49:56.818Z,926.01
2019-01-27T01:51:04.877Z,926.02
2019-01-27T01:52:12.915Z,926.04
2019-01-27T01:53:21.072Z,925.95
2019-01-27T01:54:29.023Z,926.00
2019-01-27T01:55:37.085Z,925.96
2019-01-27T01:56:45.161Z,925.98
2019-01-27T01:57:53.304Z,925.96
2019-01-27T01:59:01.269Z,925.91
2019-01-27T02:00:09.321Z,925.88
2019-01-27T02:01:17.380Z,925.87
2019-01-27T02:02:25.437Z,925.81
2019-01-27T02:03:33.483Z,925.80
2019-01-27T02:04:41.532Z,925.78
2019-01-27T02:05:49.604Z,925.79
2019-01-27T02:06:57.695Z,925.74
2019-01-27T02:08:05.830Z,925.73
2019-01-27T02:09:13.768Z,925.66
2019-01-27T02:10:21.824Z,925.63
2019-01-27T02:11:29.897Z,925.60
2019-01-27T02:12:37.979Z,925.55
2019-01-27T02:13:46.096Z,925.51
2019-01-27T02:14:54.060Z,925.51
2019-01-27T02:16:02.114Z,925.49
2019-01-27T02:17:10.251Z,925.39
2019-01-27T02:18:18.223Z,925.42
2019-01-27T02:19:26.370Z,925.31
2019-01-27T02:20:34.321Z,925.40
2019-01-27T02:21:42.397Z,925.33
2019-01-27T02:22:50.451Z,925.31
2019-01-27T02:23:58.513Z,925.29
2019-01-27T02:25:06.657Z,925.25
2019-01-27T02:26:14.630Z,925.26
2019-01-27T02:27:22.693Z,925.19
2019-01-27T02:28:30.726Z,925.19
2019-01-27T02:29:38.793Z,925.14
2019-01-27T02:30:46.885Z,925.07
2019-01-27T02:31:54.912Z,925.11
2019-01-27T02:33:02.953Z,925.11
2019-01-27T02:34:11.010Z,925.06
2019-01-27T02:35:19.058Z,925.06
2019-01-27T02:36:27.219Z,925.04
2019-01-27T02:37:35.186Z,925.05
2019-01-27T02:38:43.239Z,925.08
2019-01-27T02:39:51.298Z,925.03
2019-01-27T02:40:59.401Z,924.98
2019-01-27T02:42:07.422Z,924.99
2019-01-27T02:43:15.520Z,924.97
2019-01-27T02:44:23.526Z,924.92
2019-01-27T02:45:31.590Z,924.87
2019-01-27T02:46:39.675Z,924.85
2019-01-27T02:47:47.693Z,924.85
2019-01-27T02:48:55.739Z,924.83
2019-01-27T02:50:03.794Z,924.79
2019-01-27T02:51:11.912Z,924.84
2019-01-27T02:52:19.920Z,924.69
2019-01-27T02:53:27.960Z,924.72
2019-01-27T02:54:36.014Z,924.71
2019-01-27T02:55:44.061Z,924.65
2019-01-27T02:56:52.185Z,924.65
2019-01-27T02:58:00.289Z,924.65
2019-01-27T02:59:08.257Z,924.62
2019-01-27T03:00:16.314Z,924.65
2019-01-27T03:01:24.399Z,924.58
2019-01-27T03:02:32.420Z,924.64
2019-01-27T03:03:40.486Z,924.63
2019-01-27T03:04:48.574Z,924.61
2019-01-27T03:05:56.625Z,924.60
2019-01-27T03:07:04.732Z,924.59
2019-01-27T03:08:12.705Z,924.57
2019-01-27T03:09:20.763Z,924.53
2019-01-27T03:10:28.817Z,924.48
2019-01-27T03:11:36.918Z,924.53
2019-01-27T03:12:44.927Z,924.52
2019-01-27T03:13:53.085Z,924.43
2019-01-27T03:15:01.029Z,924.40
2019-01-27T03:16:09.113Z,924.41
2019-01-27T03:17:17.258Z,924.40
2019-01-27T03:18:25.229Z,924.31
2019-01-27T03:19:33.268Z,924.29
2019-01-27T03:20:41.327Z,924.27
2019-01-27T03:21:49.490Z,924.23
2019-01-27T03:22:57.438Z,924.24
2019-01-27T03:24:05.495Z,924.25
2019-01-27T03:25:13.535Z,924.24
2019-01-27T03:26:21.617Z,924.23
2019-01-27T03:27:29.676Z,924.15
2019-01-27T03:28:37.707Z,924.11
2019-01-27T03:29:45.885Z,924.13
2019-01-27T03:30:53.822Z,924.07
2019-01-27T03:32:02.000Z,924.09
2019-01-27T03:33:09.959Z,924.01
2019-01-27T03:34:18.006Z,924.02
2019-01-27T03:35:26.060Z,924.03
2019-01-27T03:36:34.098Z,924.01
2019-01-27T03:37:42.193Z,923.94
2019-01-27T03:38:50.222Z,923.98
2019-01-27T03:39:58.294Z,924.01
2019-01-27T03:41:06.350Z,923.98
2019-01-27T03:42:14.441Z,923.93
2019-01-27T03:43:22.448Z,923.89
2019-01-27T03:44:30.523Z,923.83
2019-01-27T03:45:38.664Z,923.88
2019-01-27T03:46:46.618Z,923.89
2019-01-27T03:47:54.701Z,923.88
2019-01-27T03:49:02.727Z,923.85
2019-01-27T03:50:10.801Z,923.90
2019-01-27T03:51:18.855Z,923.86
2019-01-27T03:52:26.939Z,923.82
2019-01-27T03:53:34.975Z,923.78
2019-01-27T03:54:43.037Z,923.76
2019-01-27T03:55:51.121Z,923.78
2019-01-27T03:56:59.233Z,923.76
2019-01-27T03:58:07.206Z,923.72
2019-01-27T03:59:15.244Z,923.70
2019-01-27T04:00:23.406Z,923.68
2019-01-27T04:01:31.363Z,923.64
2019-01-27T04:02:39.534Z,923.67
2019-01-27T04:03:47.472Z,923.66
2019-01-27T04:04:55.555Z,923.66
2019-01-27T04:06:03.590Z,923.61
2019-01-27T04:07:11.760Z,923.58
2019-01-27T04:08:19.708Z,923.64
2019-01-27T04:09:27.767Z,923.61
2019-01-27T04:10:35.819Z,923.57
2019-01-27T04:11:43.877Z,923.55
2019-01-27T04:12:51.998Z,923.61
2019-01-27T04:14:00.013Z,923.58
2019-01-27T04:15:08.076Z,923.56
2019-01-27T04:16:16.209Z,923.53
2019-01-27T04:17:24.182Z,923.49
2019-01-27T04:18:32.223Z,923.53
2019-01-27T04:19:40.267Z,923.50
2019-01-27T04:20:48.332Z,923.44
2019-01-27T04:21:56.404Z,923.47
2019-01-27T04:23:04.470Z,923.43
2019-01-27T04:24:12.491Z,923.50
2019-01-27T04:25:20.558Z,923.49
2019-01-27T04:26:28.610Z,923.42
2019-01-27T04:27:36.766Z,923.37
2019-01-27T04:28:44.721Z,923.36
2019-01-27T04:29:52.789Z,923.32
2019-01-27T04:31:00.831Z,923.35
2019-01-27T04:32:08.982Z,923.41
2019-01-27T04:33:17.050Z,923.31
2019-01-27T04:34:25.018Z,923.32
2019-01-27T04:35:33.101Z,923.39
2019-01-27T04:36:41.119Z,923.29
2019-01-27T04:37:49.226Z,923.27
2019-01-27T04:38:57.219Z,923.30
2019-01-27T04:40:05.285Z,923.27
2019-01-27T04:41:13.344Z,923.26
2019-01-27T04:42:21.416Z,923.27
2019-01-27T04:43:29.462Z,923.25
2019-01-27T04:44:37.517Z,923.22
2019-01-27T04:45:45.580Z,923.20
2019-01-27T04:46:53.645Z,923.20
2019-01-27T04:48:01.780Z,923.18
2019-01-27T04:49:09.736Z,923.15
2019-01-27T04:50:17.802Z,922.99
2019-01-27T04:51:25.856Z,923.02
2019-01-27T04:52:33.909Z,923.04
2019-01-27T04:53:42.059Z,922.98
2019-01-27T04:54:50.028Z,923.00
2019-01-27T04:55:58.073Z,922.98
2019-01-27T04:57:06.128Z,923.01
2019-01-27T04:58:14.278Z,922.96
2019-01-27T04:59:22.246Z,922.97
2019-01-27T05:00:30.329Z,923.03
2019-01-27T05:01:38.364Z,922.97
2019-01-27T05:02:46.524Z,922.96
2019-01-27T05:03:54.570Z,922.90
2019-01-27T05:05:02.543Z,922.88
2019-01-27T05:06:10.903Z,922.84
2019-01-27T05:07:18.655Z,922.78
2019-01-27T05:08:26.797Z,922.86
2019-01-27T05:09:34.787Z,922.79
2019-01-27T05:10:42.818Z,922.72
2019-01-27T05:11:50.884Z,922.69
2019-01-27T05:12:58.926Z,922.66
2019-01-27T05:14:07.035Z,922.65
2019-01-27T05:15:15.048Z,922.67
2019-01-27T05:16:23.101Z,922.64
2019-01-27T05:17:31.211Z,922.70
2019-01-27T05:18:39.316Z,922.64
2019-01-27T05:19:47.292Z,922.55
2019-01-27T05:20:55.336Z,922.55
2019-01-27T05:22:03.384Z,922.60
2019-01-27T05:23:11.436Z,922.60
2019-01-27T05:24:19.545Z,922.54
2019-01-27T05:25:27.559Z,922.54
2019-01-27T05:26:35.607Z,922.51
2019-01-27T05:27:43.674Z,922.48
2019-01-27T05:28:51.839Z,922.52
2019-01-27T05:29:59.797Z,922.42
2019-01-27T05:31:07.843Z,922.44
2019-01-27T05:32:15.920Z,922.41
2019-01-27T05:33:23.995Z,922.41
2019-01-27T05:34:32.015Z,922.34
2019-01-27T05:35:40.089Z,922.34
2019-01-27T05:36:48.126Z,922.31
2019-01-27T05:37:56.191Z,922.27
2019-01-27T05:39:04.310Z,922.23
2019-01-27T05:40:12.299Z,922.21
2019-01-27T05:41:20.358Z,922.22
2019-01-27T05:42:28.409Z,922.23
2019-01-27T05:43:36.461Z,922.24
2019-01-27T05:44:44.548Z,922.20
2019-01-27T05:45:52.587Z,922.21
2019-01-27T05:47:00.618Z,922.12
2019-01-27T05:48:08.783Z,922.09
2019-01-27T05:49:16.846Z,922.09
2019-01-27T05:50:24.795Z,922.11
2019-01-27T05:51:32.852Z,922.08
2019-01-27T05:52:40.917Z,922.10
2019-01-27T05:53:49.065Z,922.14
2019-01-27T05:54:57.014Z,922.13
2019-01-27T05:56:05.086Z,922.10
2019-01-27T05:57:13.130Z,922.02
2019-01-27T05:58:21.195Z,922.05
2019-01-27T05:59:29.315Z,922.09
2019-01-27T06:00:37.306Z,922.05
2019-01-27T06:01:45.350Z,922.03
2019-01-27T06:02:53.545Z,922.01
2019-01-27T06:04:01.561Z,922.02
2019-01-27T06:05:09.525Z,922.01
2019-01-27T06:06:17.604Z,922.09
2019-01-27T06:07:25.649Z,922.07
2019-01-27T06:08:33.697Z,922.07
2019-01-27T06:09:41.843Z,922.03
2019-01-27T06:10:49.816Z,922.03
2019-01-27T06:11:57.885Z,921.99
2019-01-27T06:13:05.918Z,921.94
2019-01-27T06:14:14.063Z,921.96
2019-01-27T06:15:22.043Z,921.93
2019-01-27T06:16:30.094Z,921.93
2019-01-27T06:17:38.153Z,921.95
2019-01-27T06:18:46.301Z,921.93
2019-01-27T06:19:54.295Z,921.92
2019-01-27T06:21:02.341Z,921.88
2019-01-27T06:22:10.426Z,921.93
2019-01-27T06:23:18.427Z,921.86
2019-01-27T06:24:26.594Z,921.80
2019-01-27T06:25:34.536Z,921.77
2019-01-27T06:26:42.622Z,921.79
2019-01-27T06:27:50.662Z,921.78
2019-01-27T06:28:58.711Z,921.72
2019-01-27T06:30:06.813Z,921.67
2019-01-27T06:31:14.818Z,921.70
2019-01-27T06:32:22.885Z,921.69
2019-01-27T06:33:30.933Z,921.63
2019-01-27T06:34:39.087Z,921.64
2019-01-27T06:35:47.037Z,921.69
2019-01-27T06:36:55.225Z,921.70
2019-01-27T06:38:03.178Z,921.65
2019-01-27T06:39:11.224Z,921.72
2019-01-27T06:40:19.421Z,921.68
2019-01-27T06:41:27.370Z,921.74
2019-01-27T06:42:35.423Z,921.67
2019-01-27T06:43:43.457Z,921.69
2019-01-27T06:44:51.621Z,921.68
2019-01-27T06:45:59.571Z,921.63
2019-01-27T06:47:07.628Z,921.55
2019-01-27T06:48:15.709Z,921.58
2019-01-27T06:49:23.734Z,921.59
2019-01-27T06:50:31.891Z,921.55
2019-01-27T06:51:39.861Z,921.56
2019-01-27T06:52:47.910Z,921.58
2019-01-27T06:53:55.981Z,921.59
2019-01-27T06:55:04.043Z,921.55
2019-01-27T06:56:12.096Z,921.57
2019-01-27T06:57:20.125Z,921.62
2019-01-27T06:58:28.283Z,921.60
2019-01-27T06:59:36.255Z,921.59
2019-01-27T07:00:44.336Z,921.59
2019-01-27T07:01:52.364Z,921.58
2019-01-27T07:03:00.418Z,921.60
2019-01-27T07:04:08.488Z,921.54
2019-01-27T07:05:16.647Z,921.62
2019-01-27T07:06:24.680Z,921.63
2019-01-27T07:07:32.628Z,921.67
2019-01-27T07:08:40.700Z,921.63
2019-01-27T07:09:48.778Z,921.65
2019-01-27T07:10:57.167Z,921.63
2019-01-27T07:12:04.910Z,921.53
2019-01-27T07:13:12.988Z,921.52
2019-01-27T07:14:20.997Z,921.50
2019-01-27T07:15:29.137Z,921.52
2019-01-27T07:16:37.134Z,921.48
2019-01-27T07:17:47.031Z,921.45
2019-01-27T07:18:53.208Z,921.45
2019-01-27T07:20:01.272Z,921.40
2019-01-27T07:21:09.980Z,921.37
2019-01-27T07:22:19.315Z,921.40
2019-01-27T07:23:25.422Z,921.36
2019-01-27T07:24:34.056Z,921.32
2019-01-27T07:25:41.654Z,921.28
2019-01-27T07:26:49.638Z,921.27
2019-01-27T07:27:59.930Z,921.26
2019-01-27T07:29:06.109Z,921.25
2019-01-27T07:30:13.767Z,921.22
2019-01-27T07:31:21.835Z,921.21
2019-01-27T07:32:29.891Z,921.15
2019-01-27T07:33:38.207Z,921.18
2019-01-27T07:34:46.147Z,921.12
2019-01-27T07:35:54.127Z,921.11
2019-01-27T07:37:02.117Z,921.10
2019-01-27T07:38:10.222Z,921.06
2019-01-27T07:39:18.445Z,921.02
2019-01-27T07:40:26.271Z,921.00
2019-01-27T07:41:34.518Z,920.99
2019-01-27T07:42:42.573Z,921.01
2019-01-27T07:43:50.451Z,921.05
2019-01-27T07:44:58.526Z,921.03
2019-01-27T07:46:06.690Z,920.97
2019-01-27T07:47:14.918Z,920.98
2019-01-27T07:48:22.914Z,920.95
2019-01-27T07:49:30.989Z,920.89
2019-01-27T07:50:39.029Z,920.92
2019-01-27T07:51:47.002Z,920.92
2019-01-27T07:52:55.249Z,920.89
2019-01-27T07:54:02.956Z,920.83
2019-01-27T07:55:11.021Z,920.83
2019-01-27T07:56:19.433Z,920.83
2019-01-27T07:57:27.131Z,920.77
2019-01-27T07:58:35.189Z,920.79
2019-01-27T07:59:43.240Z,920.76
2019-01-27T08:00:51.781Z,920.69
2019-01-27T08:01:59.361Z,920.67
2019-01-27T08:03:11.900Z,920.67
2019-01-27T08:04:15.842Z,920.67
2019-01-27T08:05:23.521Z,920.70
2019-01-27T08:06:31.631Z,920.66
2019-01-27T08:07:40.005Z,920.74
2019-01-27T08:08:47.700Z,920.71
2019-01-27T08:09:55.739Z,920.73
2019-01-27T08:11:04.160Z,920.72
2019-01-27T08:12:11.916Z,920.66
2019-01-27T08:13:20.167Z,920.66
2019-01-27T08:14:28.218Z,920.65
2019-01-27T08:15:36.039Z,920.64
2019-01-27T08:16:44.168Z,920.64
2019-01-27T08:17:52.144Z,920.62
2019-01-27T08:19:00.212Z,920.65
2019-01-27T08:20:08.681Z,920.56
2019-01-27T08:21:16.429Z,920.52
2019-01-27T08:22:24.352Z,920.54
2019-01-27T08:23:32.462Z,920.53
2019-01-27T08:24:40.480Z,920.45
2019-01-27T08:25:48.553Z,920.49
2019-01-27T08:26:56.675Z,920.47
2019-01-27T08:28:04.835Z,920.39
2019-01-27T08:29:13.218Z,920.33
2019-01-27T08:30:20.770Z,920.42
2019-01-27T08:31:28.921Z,920.44
2019-01-27T08:32:36.987Z,920.42
2019-01-27T08:33:44.986Z,920.43
2019-01-27T08:34:53.005Z,920.45
2019-01-27T08:36:01.048Z,920.41
2019-01-27T08:37:09.172Z,920.32
2019-01-27T08:38:17.293Z,920.35
2019-01-27T08:39:25.236Z,920.35
2019-01-27T08:40:33.279Z,920.31
2019-01-27T08:41:41.686Z,920.34
2019-01-27T08:42:49.996Z,920.31
2019-01-27T08:43:57.466Z,920.26
2019-01-27T08:45:05.797Z,920.26
2019-01-27T08:46:13.671Z,920.28
2019-01-27T08:47:22.525Z,920.30
2019-01-27T08:48:29.903Z,920.26
2019-01-27T08:49:37.749Z,920.24
2019-01-27T08:50:46.017Z,920.20
2019-01-27T08:51:53.910Z,920.15
2019-01-27T08:53:01.911Z,920.21
2019-01-27T08:54:09.986Z,920.18
2019-01-27T08:55:18.097Z,920.19
2019-01-27T08:56:26.114Z,920.19
2019-01-27T08:57:34.182Z,920.17
2019-01-27T08:58:42.203Z,920.16
2019-01-27T08:59:50.272Z,920.17
2019-01-27T09:00:58.392Z,920.14
2019-01-27T09:02:07.284Z,920.18
2019-01-27T09:03:14.422Z,920.20
2019-01-27T09:04:22.485Z,920.20
2019-01-27T09:05:30.690Z,920.19
2019-01-27T09:06:38.679Z,920.10
2019-01-27T09:07:46.969Z,920.12
2019-01-27T09:08:55.109Z,920.09
2019-01-27T09:10:02.889Z,920.06
2019-01-27T09:11:10.846Z,920.01
2019-01-27T09:12:18.997Z,920.07
2019-01-27T09:13:27.532Z,920.05
2019-01-27T09:14:35.029Z,920.09
2019-01-27T09:15:43.155Z,920.03
2019-01-27T09:16:51.124Z,920.00
2019-01-27T09:17:59.322Z,919.99
2019-01-27T09:19:07.534Z,920.01
2019-01-27T09:20:15.308Z,920.02
2019-01-27T09:21:23.440Z,920.03
2019-01-27T09:22:32.493Z,919.98
2019-01-27T09:23:39.777Z,919.97
2019-01-27T09:24:48.039Z,919.91
2019-01-27T09:25:56.013Z,919.95
2019-01-27T09:27:03.653Z,919.97
2019-01-27T09:28:11.738Z,919.99
2019-01-27T09:29:20.013Z,920.02
2019-01-27T09:30:27.843Z,920.01
2019-01-27T09:31:35.892Z,919.99
2019-01-27T09:32:44.293Z,919.97
2019-01-27T09:33:52.045Z,919.91
2019-01-27T09:35:00.349Z,919.95
2019-01-27T09:36:08.119Z,919.89
2019-01-27T09:37:16.187Z,919.84
2019-01-27T09:38:24.230Z,919.94
2019-01-27T09:39:32.308Z,919.92
2019-01-27T09:40:40.724Z,919.93
2019-01-27T09:41:48.408Z,919.93
2019-01-27T09:42:58.433Z,919.89
2019-01-27T09:44:04.507Z,919.88
2019-01-27T09:45:12.597Z,919.87
2019-01-27T09:46:20.691Z,919.85
2019-01-27T09:47:28.813Z,919.83
2019-01-27T09:48:36.772Z,919.84
2019-01-27T09:49:44.814Z,919.73
2019-01-27T09:50:52.883Z,919.79
2019-01-27T09:52:01.556Z,919.90
2019-01-27T09:53:09.222Z,919.85
2019-01-27T09:54:17.105Z,919.76
2019-01-27T09:55:25.118Z,919.74
2019-01-27T09:56:33.306Z,919.75
2019-01-27T09:57:41.300Z,919.68
2019-01-27T09:58:49.291Z,919.72
2019-01-27T09:59:57.356Z,919.72
2019-01-27T10:01:07.587Z,919.81
2019-01-27T10:02:13.977Z,919.71
2019-01-27T10:03:22.232Z,919.66
2019-01-27T10:04:29.673Z,919.64
2019-01-27T10:05:38.257Z,919.62
2019-01-27T10:06:45.710Z,919.60
2019-01-27T10:07:54.773Z,919.70
2019-01-27T10:09:02.379Z,919.73
2019-01-27T10:10:10.366Z,919.76
2019-01-27T10:11:18.682Z,919.65
2019-01-27T10:12:26.584Z,919.73
2019-01-27T10:13:35.199Z,919.73
2019-01-27T10:14:42.090Z,919.72
2019-01-27T10:15:50.163Z,919.74
2019-01-27T10:16:58.223Z,919.72
2019-01-27T10:18:06.416Z,919.72
2019-01-27T10:19:14.319Z,919.68
2019-01-27T10:20:22.406Z,919.70
2019-01-27T10:21:30.450Z,919.66
2019-01-27T10:22:38.505Z,919.71
2019-01-27T10:23:46.688Z,919.66
2019-01-27T10:24:54.625Z,919.65
2019-01-27T10:26:02.680Z,919.60
2019-01-27T10:27:10.759Z,919.65
2019-01-27T10:28:18.915Z,919.63
2019-01-27T10:29:26.875Z,919.58
2019-01-27T10:30:34.938Z,919.63
2019-01-27T10:31:42.983Z,919.56
2019-01-27T10:32:51.045Z,919.54
2019-01-27T10:33:59.183Z,919.53
2019-01-27T10:35:07.162Z,919.53
2019-01-27T10:36:15.229Z,919.46
2019-01-27T10:37:23.283Z,919.48
2019-01-27T10:38:31.400Z,919.46
2019-01-27T10:39:39.414Z,919.45
2019-01-27T10:40:47.466Z,919.43
2019-01-27T10:41:55.515Z,919.42
2019-01-27T10:43:03.572Z,919.40
2019-01-27T10:44:11.694Z,919.37
2019-01-27T10:45:19.700Z,919.40
2019-01-27T10:46:27.753Z,919.38
2019-01-27T10:47:35.814Z,919.42
2019-01-27T10:48:43.956Z,919.44
2019-01-27T10:49:52.026Z,919.27
2019-01-27T10:50:59.978Z,919.27
2019-01-27T10:52:08.044Z,919.24
2019-01-27T10:53:20.754Z,919.21
2019-01-27T10:54:24.224Z,919.23
2019-01-27T10:55:32.219Z,919.20
2019-01-27T10:56:40.268Z,919.21
2019-01-27T10:57:48.344Z,919.24
2019-01-27T10:58:56.489Z,919.29
2019-01-27T11:00:04.463Z,919.20
2019-01-27T11:01:12.517Z,919.10
2019-01-27T11:02:20.573Z,919.16
2019-01-27T11:03:28.631Z,919.19
2019-01-27T11:04:36.746Z,919.17
2019-01-27T11:05:44.847Z,919.30
2019-01-27T11:06:52.817Z,919.21
2019-01-27T11:08:00.879Z,919.18
2019-01-27T11:09:08.970Z,919.12
2019-01-27T11:10:17.004Z,919.06
2019-01-27T11:11:25.050Z,919.06
2019-01-27T11:12:33.111Z,919.03
2019-01-27T11:13:41.184Z,919.12
2019-01-27T11:14:49.348Z,919.04
2019-01-27T11:15:57.313Z,918.87
2019-01-27T11:17:05.365Z,918.76
2019-01-27T11:18:13.426Z,918.67
2019-01-27T11:19:21.586Z,918.64
2019-01-27T11:20:29.545Z,918.60
2019-01-27T11:21:37.693Z,918.64
2019-01-27T11:22:45.684Z,918.67
2019-01-27T11:23:53.757Z,918.67
2019-01-27T11:25:01.903Z,918.71
2019-01-27T11:26:09.846Z,918.68
2019-01-27T11:27:18.040Z,918.74
2019-01-27T11:28:25.988Z,918.67
2019-01-27T11:29:34.097Z,918.72
2019-01-27T11:30:42.093Z,918.76
2019-01-27T11:31:50.163Z,918.70
2019-01-27T11:32:58.204Z,918.73
2019-01-27T11:34:06.294Z,918.64
2019-01-27T11:35:14.404Z,918.69
2019-01-27T11:36:22.419Z,918.73
2019-01-27T11:37:30.514Z,918.76
2019-01-27T11:38:38.516Z,918.81
2019-01-27T11:39:46.648Z,918.77
2019-01-27T11:40:54.622Z,918.77
2019-01-27T11:42:02.723Z,918.83
2019-01-27T11:43:10.782Z,918.69
2019-01-27T11:44:18.830Z,918.77
2019-01-27T11:45:26.907Z,918.81
2019-01-27T11:46:34.950Z,918.71
2019-01-27T11:47:43.022Z,918.78
2019-01-27T11:48:51.080Z,918.83
2019-01-27T11:49:59.184Z,918.72
2019-01-27T11:51:07.217Z,918.75
2019-01-27T11:52:15.518Z,918.83
2019-01-27T11:53:23.381Z,918.64
2019-01-27T11:54:31.399Z,918.82
2019-01-27T11:55:39.432Z,918.74
2019-01-27T11:56:47.510Z,918.84
2019-01-27T11:57:55.587Z,918.80
2019-01-27T11:59:03.637Z,918.80
2019-01-27T12:00:11.739Z,918.80
2019-01-27T12:01:19.758Z,918.80
2019-01-27T12:02:27.809Z,918.75
2019-01-27T12:03:35.897Z,918.78
2019-01-27T12:04:43.924Z,918.71
2019-01-27T12:05:52.003Z,918.65
2019-01-27T12:07:00.050Z,918.62
2019-01-27T12:08:08.222Z,918.67
2019-01-27T12:09:16.203Z,918.58
2019-01-27T12:10:24.268Z,918.60
2019-01-27T12:11:32.329Z,918.48
2019-01-27T12:12:40.388Z,918.48
2019-01-27T12:13:48.423Z,918.45
2019-01-27T12:14:56.599Z,918.48
2019-01-27T12:16:04.538Z,918.37
2019-01-27T12:17:12.614Z,918.44
2019-01-27T12:18:20.684Z,918.43
2019-01-27T12:19:28.736Z,918.38
2019-01-27T12:20:36.895Z,918.31
2019-01-27T12:21:44.902Z,918.36
2019-01-27T12:22:53.029Z,918.36
2019-01-27T12:24:00.991Z,918.28
2019-01-27T12:25:09.902Z,918.26
2019-01-27T12:26:17.657Z,918.26
2019-01-27T12:27:25.181Z,918.38
2019-01-27T12:28:33.706Z,918.28
2019-01-27T12:29:41.285Z,918.27
2019-01-27T12:30:49.409Z,918.29
2019-01-27T12:31:57.577Z,918.31
2019-01-27T12:33:05.493Z,918.32
2019-01-27T12:34:13.536Z,918.31
2019-01-27T12:35:21.645Z,918.23
2019-01-27T12:36:29.670Z,918.20
2019-01-27T12:37:37.834Z,918.23
2019-01-27T12:38:45.781Z,918.20
2019-01-27T12:39:53.848Z,918.15
2019-01-27T12:41:02.695Z,918.14
2019-01-27T12:42:09.990Z,918.18
2019-01-27T12:43:18.037Z,918.10
2019-01-27T12:44:26.093Z,918.02
2019-01-27T12:45:34.239Z,918.07
2019-01-27T12:46:42.218Z,918.04
2019-01-27T12:47:50.293Z,918.13
2019-01-27T12:48:58.327Z,918.15
2019-01-27T12:50:06.394Z,918.15
2019-01-27T12:51:14.489Z,918.13
2019-01-27T12:52:22.530Z,918.18
2019-01-27T12:53:30.624Z,918.14
2019-01-27T12:54:38.655Z,918.08
2019-01-27T12:55:46.766Z,918.03
2019-01-27T12:56:54.777Z,917.98
2019-01-27T12:58:02.814Z,917.92
2019-01-27T12:59:10.928Z,917.90
2019-01-27T13:00:18.969Z,917.89
2019-01-27T13:01:27.117Z,917.87
2019-01-27T13:02:35.106Z,917.84
2019-01-27T13:03:43.148Z,917.82
2019-01-27T13:04:51.340Z,917.73
2019-01-27T13:05:59.331Z,917.66
2019-01-27T13:07:07.352Z,917.67
2019-01-27T13:08:15.521Z,917.69
2019-01-27T13:09:23.477Z,917.72
2019-01-27T13:10:31.534Z,917.78
2019-01-27T13:11:39.636Z,917.76
2019-01-27T13:12:47.841Z,917.77
2019-01-27T13:13:55.713Z,917.70
2019-01-27T13:15:03.891Z,917.72
2019-01-27T13:16:11.963Z,917.66
2019-01-27T13:17:19.892Z,917.66
2019-01-27T13:18:27.945Z,917.69
2019-01-27T13:19:36.016Z,917.61
2019-01-27T13:20:44.058Z,917.61
2019-01-27T13:21:52.222Z,917.61
2019-01-27T13:23:00.239Z,917.54
2019-01-27T13:24:08.338Z,917.49
2019-01-27T13:25:16.331Z,917.46
2019-01-27T13:26:24.426Z,917.48
2019-01-27T13:27:32.437Z,917.47
2019-01-27T13:28:40.518Z,917.40
2019-01-27T13:29:48.574Z,917.38
2019-01-27T13:30:56.618Z,917.45
2019-01-27T13:32:04.778Z,917.38
2019-01-27T13:33:12.766Z,917.38
2019-01-27T13:34:20.815Z,917.33
2019-01-27T13:35:28.879Z,917.28
2019-01-27T13:36:37.054Z,917.38
2019-01-27T13:37:45.028Z,917.43
2019-01-27T13:38:53.043Z,917.37
2019-01-27T13:40:01.230Z,917.34
2019-01-27T13:41:09.189Z,917.38
2019-01-27T13:42:17.282Z,917.47
2019-01-27T13:43:25.309Z,917.46
2019-01-27T13:44:33.352Z,917.46
2019-01-27T13:45:41.427Z,917.51
2019-01-27T13:46:49.529Z,917.53
2019-01-27T13:47:59.026Z,917.58
2019-01-27T13:49:05.625Z,917.54
2019-01-27T13:50:13.673Z,917.57
2019-01-27T13:51:21.857Z,917.52
2019-01-27T13:52:29.796Z,917.54
2019-01-27T13:53:37.837Z,917.46
2019-01-27T13:54:46.582Z,917.45
2019-01-27T13:55:54.059Z,917.39
2019-01-27T13:57:02.390Z,917.42
2019-01-27T13:58:10.095Z,917.39
2019-01-27T13:59:18.534Z,917.39
2019-01-27T14:00:26.220Z,917.31
2019-01-27T14:01:35.404Z,917.32
2019-01-27T14:02:42.963Z,917.36
2019-01-27T14:03:50.988Z,917.35
2019-01-27T14:05:00.188Z,917.33
2019-01-27T14:06:07.145Z,917.39
2019-01-27T14:07:15.578Z,917.42
2019-01-27T14:08:23.330Z,917.43
2019-01-27T14:09:31.412Z,917.43